Observations for ABERDEEN DYCE, United Kingdom (EGPD)

EGPD 191950Z 35015KT 9999 FEW038 SCT048 09/06 Q1004 NOSIG   
EGPD 191920Z AUTO 34012KT 9999 NCD 08/06 Q1003 NOSIG
EGPD 191850Z AUTO 34012KT 9999 NCD 09/06 Q1003 NOSIG
EGPD 191820Z AUTO 34011KT 9999 NCD 08/05 Q1003 NOSIG
EGPD 191750Z 34013KT 9999 VCSH FEW038 SCT045 09/06 Q1003 NOSIG  
EGPD 191720Z 35014KT 9999 -RA SCT020 BKN037 09/07 Q1002 NOSIG   
EGPD 191650Z 34013KT 9999 FEW022 SCT031 10/06 Q1002 NOSIG   
EGPD 191620Z 35013KT 9999 FEW031 SCT044 10/06 Q1002 NOSIG   
EGPD 191550Z 35012KT 9999 FEW025 10/06 Q1002 NOSIG  
EGPD 191520Z 36012KT 9999 SCT024 SCT031 11/06 Q1001 NOSIG   
EGPD 191450Z 36014KT 9999 FEW027 SCT032 11/06 Q1001 NOSIG   
EGPD 191420Z AUTO 35014KT 9999 FEW026 SCT031 11/06 Q1001 NOSIG  
EGPD 191350Z AUTO 36015KT 9999 FEW028 SCT032 11/06 Q1001 NOSIG  
EGPD 191320Z AUTO 36010KT 9999 SCT025 11/05 Q1001 NOSIG 
EGPD 191250Z AUTO 36013KT 9999 SCT025 SCT030 BKN036 11/06 Q1001 NOSIG   
EGPD 191220Z AUTO 35013KT 9999 FEW025 SCT029 BKN045 11/06 Q1001 NOSIG   
EGPD 191150Z 36014G24KT 330V030 9999 SCT024 BKN040 11/06 Q1000 NOSIG
EGPD 191120Z 36014KT 9999 FEW023TCU 11/07 Q1000 NOSIG   
EGPD 191050Z 36011KT 9999 SCT020TCU 10/07 Q1000 NOSIG   
EGPD 191020Z 35012KT 9999 BKN021 11/07 Q1000 NOSIG  
EGPD 190950Z 36010KT 9999 FEW025 10/06 Q1000 NOSIG  
EGPD 190920Z 35011KT 9999 FEW024 09/06 Q1000 NOSIG  
EGPD 190850Z 35010KT 9999 FEW024 09/06 Q0999 NOSIG  
EGPD 190820Z 35010KT 9999 FEW024 09/06 Q0999 NOSIG  
EGPD 190750Z 35012KT 9999 FEW015 SCT048 09/07 Q0999 NOSIG   
EGPD 190720Z 35012KT 9999 FEW015 BKN048 09/07 Q0999 NOSIG   
EGPD 190650Z AUTO 35011KT 9999 BKN048 09/07 Q0998 NOSIG 
EGPD 190620Z AUTO 36011KT 9999 -RA BKN041 09/07 Q0998 NOSIG 
EGPD 190550Z AUTO 36011KT 9000 -RA BKN038/// OVC045/// //////TCU 09/08 Q0998 NOSIG  
EGPD 190520Z AUTO 36012KT 8000 -RA FEW016/// BKN033/// //////TCU 09/08 Q0998 TEMPO RA BKN014
EGPD 190450Z AUTO 36013KT 6000 -RA BKN013/// BKN029/// OVC044/// //////TCU 09/08 Q0997 TEMPO RA 
EGPD 190420Z AUTO 01012KT 6000 -RA BKN010/// BKN019/// //////CB 10/08 Q0997 TEMPO 4000 RA BKN008
EGPD 190350Z AUTO 01011KT 7000 -RA BKN008/// OVC032/// //////CB 10/09 Q0997 RERA TEMPO 4000 RA  
EGPD 190320Z AUTO 02012KT 5000 -RA BKN009/// //////CB 10/09 Q0997 RERA TEMPO 3000 RA
EGPD 190250Z AUTO 36010KT 9999 -RA BKN009/// OVC014/// //////TCU 10/09 Q0996 TEMPO RA   
EGPD 190220Z AUTO 36009KT 5000 -DZ BKN008/// BKN013/// OVC038/// //////TCU 10/09 Q0996 RERA REDZ TEMPO RA   
EGPD 190150Z AUTO 36008KT 9999 -RA SCT008/// BKN011/// BKN018/// //////CB 10/09 Q0996 TEMPO RA BKN008   
EGPD 190120Z AUTO 36007KT 9999 BKN010 10/09 Q0996 TEMPO RA BKN009   
EGPD 190050Z AUTO 02007KT 9999 FEW008/// BKN013/// BKN029/// //////TCU 10/09 Q0996 TEMPO RA 
EGPD 190020Z AUTO 35004KT 9999 SCT011/// BKN016/// BKN025/// //////CB 09/08 Q0996 TEMPO RA BKN012   
EGPD 182350Z AUTO 36004KT 340V040 9999 SCT012/// BKN021/// BKN029/// //////CB 10/09 Q0996 TEMPO RA BKN012   
EGPD 182320Z AUTO 01006KT 9999 FEW011 SCT017 BKN040 10/09 Q0996 RERA NOSIG  
EGPD 182250Z AUTO 34004KT 280V030 4900 RA BKN007/// OVC022/// //////TCU 09/08 Q0996 TEMPO 9999 NSW BKN012   
EGPD 182220Z VRB01KT 9000 -RA BKN014 09/08 Q0996 TEMPO RA   
EGPD 182150Z AUTO 27003KT 9999 -RA OVC014/// //////CB 09/08 Q0996 TEMPO RA  
EGPD 182120Z VRB02KT 9999 -RA BKN011 09/08 Q0996 RETS RERA TEMPO RA BKN009  
EGPD 182050Z 19005KT 5000 RA BKN012 09/08 Q0995 TEMPO 4000 BKN009   
EGPD 182020Z 16009KT 110V220 7000 -RA BKN011 09/08 Q0995 RERA TEMPO RA BKN009   
EGPD 181950Z 29007KT 260V320 9999 -RA BKN016 09/08 Q0995 RERA TEMPO RA BKN012   
EGPD 181920Z 31007KT 270V350 4600 RA BKN013 08/08 Q0995 TEMPO BKN008